Terminal Aerodrome Forecast
Issued by NWS Northern Indiana

Home | Current Version | Previous Version | Text Only | Print | Product List | Glossary On
Versions: 1 2 3 4 5 6 7 8 9 10 11 12 13 14 15 16 17 18
000
FTUS43 KIWX 221143
TAFFWA
TAF
KFWA 221143Z 2212/2312 17010KT P6SM VCSH OVC090 WS020/21040KT
     FM221600 18013KT 4SM -RA BR BKN020
     FM221800 20010KT P6SM -SHRA OVC050
     FM231000 22010KT 5SM -SHRA BR OVC015=

USA.gov is the U.S. government's official web portal to all federal, state and local government web resources and services.